createdAt,value
2019-05-26T00:00:20.370Z,10.23
2019-05-26T00:02:50.282Z,9.77
2019-05-26T00:05:19.903Z,8.77
2019-05-26T00:07:49.388Z,10.70
2019-05-26T00:10:19.282Z,9.67
2019-05-26T00:12:48.760Z,9.47
2019-05-26T00:15:18.445Z,9.60
2019-05-26T00:17:47.925Z,9.40
2019-05-26T00:20:17.793Z,9.50
2019-05-26T00:22:47.357Z,9.63
2019-05-26T00:25:16.843Z,8.93
2019-05-26T00:27:46.477Z,10.77
2019-05-26T00:30:17.095Z,9.77
2019-05-26T00:32:47.005Z,10.10
2019-05-26T00:35:17.648Z,10.43
2019-05-26T00:37:49.696Z,11.23
2019-05-26T00:40:18.828Z,11.23
2019-05-26T00:42:48.402Z,10.63
2019-05-26T00:45:18.196Z,10.37
2019-05-26T00:47:47.762Z,9.93
2019-05-26T00:50:17.531Z,10.00
2019-05-26T00:52:47.445Z,10.57
2019-05-26T00:55:17.242Z,10.10
2019-05-26T00:57:46.834Z,10.13
2019-05-26T01:00:18.234Z,9.80
2019-05-26T01:02:48.128Z,10.07
2019-05-26T01:05:17.941Z,10.03
2019-05-26T01:08:04.964Z,10.40
2019-05-26T01:10:19.587Z,9.70
2019-05-26T01:12:49.089Z,9.40
2019-05-26T01:15:18.661Z,10.47
2019-05-26T01:17:48.207Z,9.30
2019-05-26T01:20:18.124Z,9.67
2019-05-26T01:22:47.821Z,10.07
2019-05-26T01:25:17.335Z,9.87
2019-05-26T01:27:46.802Z,10.40
2019-05-26T01:30:17.857Z,11.50
2019-05-26T01:32:47.749Z,11.20
2019-05-26T01:35:17.719Z,10.27
2019-05-26T01:37:47.624Z,11.47
2019-05-26T01:40:18.675Z,13.37
2019-05-26T01:42:48.254Z,12.17
2019-05-26T01:45:17.848Z,13.33
2019-05-26T01:47:47.336Z,11.97
2019-05-26T01:50:16.843Z,13.03
2019-05-26T01:52:46.757Z,14.80
2019-05-26T01:55:16.738Z,17.13
2019-05-26T01:57:46.560Z,14.13
2019-05-26T02:00:16.143Z,13.93
2019-05-26T02:02:45.777Z,16.17
2019-05-26T02:05:15.355Z,15.90
2019-05-26T02:07:44.940Z,14.87
2019-05-26T02:10:15.008Z,14.60
2019-05-26T02:12:44.499Z,14.33
2019-05-26T02:15:14.731Z,15.73
2019-05-26T02:17:44.710Z,14.33
2019-05-26T02:20:14.670Z,17.07
2019-05-26T02:22:44.227Z,15.97
2019-05-26T02:25:16.174Z,18.00
2019-05-26T02:27:46.054Z,18.63
2019-05-26T02:30:16.060Z,19.23
2019-05-26T02:32:46.387Z,19.30
2019-05-26T02:35:16.937Z,19.63
2019-05-26T02:37:46.803Z,20.07
2019-05-26T02:40:16.878Z,21.40
2019-05-26T02:42:46.647Z,21.77
2019-05-26T02:45:17.817Z,21.60
2019-05-26T02:47:48.026Z,22.03
2019-05-26T02:50:18.403Z,23.70
2019-05-26T02:52:48.356Z,22.27
2019-05-26T02:55:18.401Z,26.00
2019-05-26T02:57:48.167Z,26.50
2019-05-26T03:00:24.315Z,29.47
2019-05-26T03:02:54.117Z,30.40
2019-05-26T03:05:23.736Z,25.17
2019-05-26T03:07:54.085Z,26.87
2019-05-26T03:10:24.029Z,29.37
2019-05-26T03:12:54.142Z,29.03
2019-05-26T03:15:23.704Z,32.83
2019-05-26T03:17:54.529Z,32.90
2019-05-26T03:20:24.420Z,33.53
2019-05-26T03:22:55.513Z,32.57
2019-05-26T03:25:25.093Z,32.97
2019-05-26T03:27:54.600Z,33.13
2019-05-26T03:30:24.550Z,32.67
2019-05-26T03:32:54.673Z,31.60
2019-05-26T03:35:24.210Z,34.53
2019-05-26T03:37:53.803Z,31.97
2019-05-26T03:40:23.379Z,34.57
2019-05-26T03:42:53.035Z,34.67
2019-05-26T03:45:29.448Z,34.03
2019-05-26T03:47:59.007Z,35.23
2019-05-26T03:50:29.042Z,38.00
2019-05-26T03:52:58.890Z,38.97
2019-05-26T03:55:28.503Z,38.57
2019-05-26T03:57:58.173Z,38.53
2019-05-26T04:00:27.664Z,37.80
2019-05-26T04:02:57.165Z,40.13
2019-05-26T04:05:26.765Z,42.30
2019-05-26T04:07:56.484Z,40.60
2019-05-26T04:10:26.583Z,41.13
2019-05-26T04:12:56.225Z,39.57
2019-05-26T04:15:25.783Z,43.33
2019-05-26T04:17:55.516Z,41.23
2019-05-26T04:20:25.023Z,42.37
2019-05-26T04:22:54.577Z,40.40
2019-05-26T04:25:24.155Z,39.63
2019-05-26T04:27:53.708Z,42.20
2019-05-26T04:30:23.325Z,41.03
2019-05-26T04:32:53.033Z,37.30
2019-05-26T04:35:22.755Z,37.77
2019-05-26T04:37:52.701Z,35.67
2019-05-26T04:40:27.116Z,35.63
2019-05-26T04:42:53.717Z,35.77
2019-05-26T04:45:23.304Z,36.13
2019-05-26T04:47:52.815Z,35.90
2019-05-26T04:50:22.591Z,36.37
2019-05-26T04:53:05.268Z,36.60
2019-05-26T04:55:23.390Z,36.50
2019-05-26T04:57:53.042Z,35.80
2019-05-26T05:00:22.656Z,38.37
2019-05-26T05:02:52.253Z,37.43
2019-05-26T05:05:22.043Z,37.80
2019-05-26T05:07:51.878Z,38.10
2019-05-26T05:10:21.536Z,37.90
2019-05-26T05:12:51.093Z,36.10
2019-05-26T05:15:20.603Z,38.07
2019-05-26T05:17:50.484Z,38.83
2019-05-26T05:20:20.386Z,39.33
2019-05-26T05:22:50.019Z,38.53
2019-05-26T05:25:19.641Z,38.30
2019-05-26T05:27:49.236Z,38.83
2019-05-26T05:30:19.816Z,37.03
2019-05-26T05:32:49.320Z,37.40
2019-05-26T05:35:20.000Z,37.53
2019-05-26T05:37:49.546Z,36.83
2019-05-26T05:40:19.451Z,36.90
2019-05-26T05:42:49.018Z,37.20
2019-05-26T05:45:18.827Z,37.00
2019-05-26T05:47:48.712Z,36.48
2019-05-26T05:50:18.597Z,37.00
2019-05-26T05:52:48.170Z,36.28
2019-05-26T05:55:17.872Z,34.48
2019-05-26T05:57:47.419Z,35.38
2019-05-26T06:00:17.086Z,34.25
2019-05-26T06:02:46.755Z,33.98
2019-05-26T06:05:16.628Z,31.27
2019-05-26T06:07:46.127Z,30.85
2019-05-26T06:10:15.606Z,31.90
2019-05-26T06:12:45.150Z,30.85
2019-05-26T06:15:16.379Z,31.23
2019-05-26T06:17:46.093Z,32.13
2019-05-26T06:20:16.931Z,30.20
2019-05-26T06:22:46.604Z,31.27
2019-05-26T06:25:16.234Z,31.42
2019-05-26T06:27:45.920Z,32.08
2019-05-26T06:30:17.003Z,29.63
2019-05-26T06:32:46.554Z,31.27
2019-05-26T06:35:17.123Z,30.77
2019-05-26T06:37:47.657Z,29.25
2019-05-26T06:40:17.221Z,30.40
2019-05-26T06:42:46.823Z,31.17
2019-05-26T06:45:16.667Z,29.85
2019-05-26T06:47:46.553Z,29.87
2019-05-26T06:50:16.442Z,30.70
2019-05-26T06:52:46.120Z,29.72
2019-05-26T06:55:15.866Z,28.67
2019-05-26T06:57:45.393Z,26.60
2019-05-26T07:00:15.030Z,26.50
2019-05-26T07:02:44.814Z,26.65
2019-05-26T07:05:18.241Z,25.65
2019-05-26T07:07:46.425Z,25.15
2019-05-26T07:10:16.098Z,25.20
2019-05-26T07:12:45.599Z,23.22
2019-05-26T07:15:15.995Z,22.77
2019-05-26T07:17:45.493Z,23.02
2019-05-26T07:20:15.115Z,23.60
2019-05-26T07:22:45.195Z,23.15
2019-05-26T07:25:14.824Z,22.37
2019-05-26T07:27:44.304Z,21.90
2019-05-26T07:30:14.662Z,22.52
2019-05-26T07:32:44.251Z,21.85
2019-05-26T07:35:15.069Z,20.57
2019-05-26T07:37:44.967Z,20.43
2019-05-26T07:40:14.640Z,19.87
2019-05-26T07:42:44.212Z,19.62
2019-05-26T07:45:14.284Z,19.05
2019-05-26T07:47:43.843Z,19.05
2019-05-26T07:50:13.461Z,19.73
2019-05-26T07:52:43.027Z,18.17
2019-05-26T07:55:12.619Z,16.50
2019-05-26T07:57:42.595Z,16.25
2019-05-26T08:00:12.506Z,20.45
2019-05-26T08:02:43.098Z,17.40
2019-05-26T08:05:12.629Z,16.48
2019-05-26T08:07:42.164Z,15.85
2019-05-26T08:10:11.858Z,17.27
2019-05-26T08:12:41.377Z,16.32
2019-05-26T08:15:11.010Z,15.35
2019-05-26T08:17:40.415Z,15.08
2019-05-26T08:20:11.852Z,14.18
2019-05-26T08:22:41.535Z,12.50
2019-05-26T08:25:12.014Z,12.68
2019-05-26T08:27:41.574Z,12.13
2019-05-26T08:30:11.230Z,11.48
2019-05-26T08:32:40.852Z,9.70
2019-05-26T08:35:10.514Z,9.95
2019-05-26T08:37:39.989Z,9.68
2019-05-26T08:40:19.009Z,11.80
2019-05-26T08:42:49.662Z,9.80
2019-05-26T08:45:22.027Z,8.03
2019-05-26T08:47:52.508Z,8.60
2019-05-26T08:50:22.972Z,8.35
2019-05-26T08:52:52.507Z,10.53
2019-05-26T08:55:22.086Z,7.80
2019-05-26T08:57:51.977Z,7.50
2019-05-26T09:00:22.089Z,4.72
2019-05-26T09:02:51.600Z,6.65
2019-05-26T09:05:21.665Z,4.78
2019-05-26T09:07:51.172Z,5.05
2019-05-26T09:10:20.999Z,4.85
2019-05-26T09:13:00.613Z,5.65
2019-05-26T09:15:22.711Z,3.52
2019-05-26T09:17:52.478Z,4.60
2019-05-26T09:20:22.049Z,5.37
2019-05-26T09:22:51.651Z,5.47
2019-05-26T09:25:21.506Z,3.95
2019-05-26T09:27:51.108Z,4.28
2019-05-26T09:30:20.941Z,3.98
2019-05-26T09:32:51.050Z,3.65
2019-05-26T09:35:21.084Z,6.55
2019-05-26T09:37:50.753Z,4.42
2019-05-26T09:40:20.311Z,4.03
2019-05-26T09:42:49.864Z,3.35
2019-05-26T09:45:19.533Z,4.33
2019-05-26T09:47:49.251Z,3.92
2019-05-26T09:50:18.967Z,3.30
2019-05-26T09:52:48.598Z,3.87
2019-05-26T09:55:18.284Z,3.98
2019-05-26T09:57:48.233Z,2.90
2019-05-26T10:00:17.994Z,3.47
2019-05-26T10:02:47.923Z,5.22
2019-05-26T10:05:17.430Z,5.40
2019-05-26T10:07:47.004Z,3.08
2019-05-26T10:10:18.206Z,3.33
2019-05-26T10:12:47.695Z,3.83
2019-05-26T10:15:17.428Z,3.17
2019-05-26T10:17:47.076Z,3.47
2019-05-26T10:20:17.073Z,3.10
2019-05-26T10:22:46.875Z,3.33
2019-05-26T10:25:16.590Z,4.62
2019-05-26T10:27:46.199Z,2.67
2019-05-26T10:30:16.058Z,2.77
2019-05-26T10:32:45.615Z,3.08
2019-05-26T10:35:15.206Z,2.58
2019-05-26T10:37:44.772Z,2.62
2019-05-26T10:40:14.851Z,3.42
2019-05-26T10:42:44.340Z,2.45
2019-05-26T10:45:14.856Z,3.58
2019-05-26T10:47:44.401Z,3.42
2019-05-26T10:50:14.245Z,2.42
2019-05-26T10:52:43.847Z,2.95
2019-05-26T10:55:13.850Z,3.15
2019-05-26T10:57:43.390Z,3.15
2019-05-26T11:00:12.935Z,3.02
2019-05-26T11:02:42.946Z,2.58
2019-05-26T11:05:13.198Z,3.35
2019-05-26T11:07:42.692Z,5.65
2019-05-26T11:10:12.910Z,3.75
2019-05-26T11:12:42.469Z,2.20
2019-05-26T11:15:12.273Z,3.45
2019-05-26T11:17:41.802Z,3.92
2019-05-26T11:20:11.646Z,3.25
2019-05-26T11:22:41.586Z,2.90
2019-05-26T11:25:11.788Z,3.02
2019-05-26T11:27:41.251Z,3.42
2019-05-26T11:30:11.325Z,4.00
2019-05-26T11:32:40.914Z,3.12
2019-05-26T11:35:10.595Z,3.83
2019-05-26T11:37:40.042Z,4.35
2019-05-26T11:40:10.767Z,2.37
2019-05-26T11:42:40.229Z,3.65
2019-05-26T11:45:10.507Z,3.37
2019-05-26T11:47:39.962Z,3.77
2019-05-26T11:50:11.239Z,2.83
2019-05-26T11:52:40.747Z,5.58
2019-05-26T11:55:10.658Z,3.65
2019-05-26T11:57:40.116Z,3.37
2019-05-26T12:00:11.208Z,3.20
2019-05-26T12:02:41.034Z,2.65
2019-05-26T12:05:10.834Z,2.67
2019-05-26T12:07:40.403Z,4.00
2019-05-26T12:10:13.909Z,6.03
2019-05-26T12:12:41.552Z,3.37
2019-05-26T12:15:11.549Z,3.33
2019-05-26T12:17:41.138Z,6.00
2019-05-26T12:20:10.707Z,4.37
2019-05-26T12:22:40.284Z,4.90
2019-05-26T12:25:11.098Z,5.40
2019-05-26T12:27:40.680Z,6.42
2019-05-26T12:30:10.564Z,5.65
2019-05-26T12:32:40.073Z,4.90
2019-05-26T12:35:09.638Z,6.85
2019-05-26T12:37:39.215Z,6.10
2019-05-26T12:40:09.107Z,4.87
2019-05-26T12:42:38.643Z,5.33
2019-05-26T12:45:08.741Z,2.95
2019-05-26T12:47:39.672Z,6.15
2019-05-26T12:50:09.868Z,6.25
2019-05-26T12:52:39.724Z,4.78
2019-05-26T12:55:10.105Z,4.72
2019-05-26T12:57:40.170Z,4.75
2019-05-26T13:00:10.228Z,3.60
2019-05-26T13:02:40.117Z,7.00
2019-05-26T13:05:10.021Z,3.50
2019-05-26T13:07:39.536Z,4.20
2019-05-26T13:10:09.742Z,3.47
2019-05-26T13:12:40.702Z,5.92
2019-05-26T13:15:12.228Z,3.17
2019-05-26T13:17:41.907Z,3.17
2019-05-26T13:20:11.956Z,5.40
2019-05-26T13:22:41.550Z,4.30
2019-05-26T13:25:12.679Z,4.30
2019-05-26T13:27:43.209Z,5.80
2019-05-26T13:30:13.391Z,3.52
2019-05-26T13:32:43.019Z,3.83
2019-05-26T13:35:13.414Z,3.67
2019-05-26T13:37:43.905Z,4.20
2019-05-26T13:40:14.570Z,5.53
2019-05-26T13:42:44.047Z,5.17
2019-05-26T13:45:22.474Z,3.50
2019-05-26T13:47:47.047Z,3.67
2019-05-26T13:50:17.222Z,4.85
2019-05-26T13:52:46.749Z,5.97
2019-05-26T13:55:16.974Z,3.87
2019-05-26T13:57:49.437Z,4.17
2019-05-26T14:00:18.006Z,4.05
2019-05-26T14:02:47.508Z,3.50
2019-05-26T14:05:17.098Z,8.15
2019-05-26T14:07:47.016Z,3.80
2019-05-26T14:10:19.886Z,5.58
2019-05-26T14:12:49.439Z,5.33
2019-05-26T14:15:20.368Z,5.17
2019-05-26T14:17:49.852Z,6.00
2019-05-26T14:20:20.958Z,3.67
2019-05-26T14:22:50.537Z,4.85
2019-05-26T14:25:20.765Z,5.53
2019-05-26T14:27:50.840Z,6.50
2019-05-26T14:30:20.535Z,3.65
2019-05-26T14:32:50.310Z,4.92
2019-05-26T14:35:19.885Z,6.42
2019-05-26T14:37:49.408Z,3.20
2019-05-26T14:40:18.945Z,4.97
2019-05-26T14:42:48.406Z,4.45
2019-05-26T14:45:19.352Z,5.72
2019-05-26T14:47:50.063Z,9.00
2019-05-26T14:50:19.869Z,5.53
2019-05-26T14:52:49.503Z,4.10
2019-05-26T14:55:19.018Z,5.75
2019-05-26T14:57:48.993Z,3.42
2019-05-26T15:00:19.236Z,3.42
2019-05-26T15:02:48.818Z,3.72
2019-05-26T15:05:18.371Z,3.87
2019-05-26T15:07:48.170Z,7.12
2019-05-26T15:10:18.102Z,5.78
2019-05-26T15:12:47.984Z,4.10
2019-05-26T15:15:17.870Z,4.37
2019-05-26T15:17:47.430Z,5.85
2019-05-26T15:20:17.249Z,6.08
2019-05-26T15:22:47.080Z,6.53
2019-05-26T15:25:16.656Z,3.92
2019-05-26T15:27:46.782Z,5.35
2019-05-26T15:30:18.991Z,6.90
2019-05-26T15:32:48.447Z,3.77
2019-05-26T15:35:18.116Z,5.33
2019-05-26T15:37:47.582Z,4.65
2019-05-26T15:40:17.067Z,3.98
2019-05-26T15:42:46.973Z,3.87
2019-05-26T15:45:17.277Z,3.65
2019-05-26T15:47:46.827Z,4.85
2019-05-26T15:50:17.167Z,4.78
2019-05-26T15:52:46.705Z,3.70
2019-05-26T15:55:16.857Z,5.90
2019-05-26T15:57:46.417Z,4.20
2019-05-26T16:00:17.962Z,4.22
2019-05-26T16:02:47.606Z,4.17
2019-05-26T16:05:17.368Z,4.67
2019-05-26T16:07:46.909Z,4.75
2019-05-26T16:10:17.912Z,5.10
2019-05-26T16:12:47.481Z,5.22
2019-05-26T16:15:17.244Z,4.87
2019-05-26T16:17:47.018Z,4.17
2019-05-26T16:20:16.751Z,3.98
2019-05-26T16:22:46.619Z,4.85
2019-05-26T16:25:16.760Z,6.15
2019-05-26T16:27:46.386Z,3.58
2019-05-26T16:30:16.497Z,7.47
2019-05-26T16:32:46.501Z,4.92
2019-05-26T16:35:16.198Z,5.05
2019-05-26T16:37:46.956Z,4.00
2019-05-26T16:40:16.856Z,4.33
2019-05-26T16:42:46.707Z,3.83
2019-05-26T16:45:16.502Z,7.00
2019-05-26T16:47:45.998Z,4.12
2019-05-26T16:50:15.654Z,6.78
2019-05-26T16:52:45.438Z,4.65
2019-05-26T16:55:15.348Z,6.65
2019-05-26T16:57:44.973Z,4.70
2019-05-26T17:00:14.859Z,4.12
2019-05-26T17:02:44.720Z,7.12
2019-05-26T17:05:14.672Z,5.90
2019-05-26T17:07:44.601Z,5.03
2019-05-26T17:10:14.236Z,3.62
2019-05-26T17:12:43.701Z,4.03
2019-05-26T17:15:13.411Z,5.62
2019-05-26T17:17:43.033Z,5.47
2019-05-26T17:20:12.781Z,4.80
2019-05-26T17:22:42.970Z,4.05
2019-05-26T17:25:12.753Z,3.95
2019-05-26T17:27:42.254Z,3.83
2019-05-26T17:30:12.355Z,4.92
2019-05-26T17:32:42.203Z,5.83
2019-05-26T17:35:11.845Z,4.85
2019-05-26T17:37:41.361Z,4.53
2019-05-26T17:40:11.554Z,4.47
2019-05-26T17:42:41.112Z,4.35
2019-05-26T17:45:10.898Z,4.70
2019-05-26T17:47:40.543Z,3.98
2019-05-26T17:50:11.942Z,3.65
2019-05-26T17:52:41.957Z,7.75
2019-05-26T17:55:11.779Z,3.55
2019-05-26T17:57:41.399Z,4.80
2019-05-26T18:00:11.905Z,4.62
2019-05-26T18:02:41.520Z,4.08
2019-05-26T18:05:11.503Z,3.83
2019-05-26T18:07:42.120Z,4.83
2019-05-26T18:10:11.974Z,4.80
2019-05-26T18:12:41.445Z,5.67
2019-05-26T18:15:12.780Z,4.03
2019-05-26T18:17:47.383Z,4.30
2019-05-26T18:20:13.919Z,4.62
2019-05-26T18:22:43.934Z,5.92
2019-05-26T18:25:13.714Z,6.35
2019-05-26T18:27:44.231Z,4.62
2019-05-26T18:30:13.962Z,5.87
2019-05-26T18:32:45.773Z,7.97
2019-05-26T18:35:15.620Z,4.08
2019-05-26T18:37:45.168Z,3.75
2019-05-26T18:40:16.907Z,4.03
2019-05-26T18:42:46.670Z,4.90
2019-05-26T18:45:16.844Z,6.80
2019-05-26T18:48:01.336Z,4.83
2019-05-26T18:50:18.368Z,7.17
2019-05-26T18:52:47.866Z,4.60
2019-05-26T18:55:19.073Z,5.47
2019-05-26T18:57:49.475Z,6.83
2019-05-26T19:00:19.300Z,4.53
2019-05-26T19:02:49.343Z,4.65
2019-05-26T19:05:32.401Z,7.03
2019-05-26T19:07:50.869Z,5.25
2019-05-26T19:10:20.630Z,6.78
2019-05-26T19:12:50.338Z,4.78
2019-05-26T19:15:20.113Z,4.75
2019-05-26T19:17:54.800Z,5.72
2019-05-26T19:20:24.868Z,6.83
2019-05-26T19:22:55.366Z,5.12
2019-05-26T19:25:25.944Z,4.70
2019-05-26T19:27:56.111Z,5.55
2019-05-26T19:30:25.696Z,8.73
2019-05-26T19:32:55.756Z,4.90
2019-05-26T19:35:25.479Z,5.05
2019-05-26T19:37:54.995Z,5.10
2019-05-26T19:40:24.554Z,5.45
2019-05-26T19:42:54.707Z,5.92
2019-05-26T19:45:24.362Z,5.80
2019-05-26T19:47:53.933Z,4.97
2019-05-26T19:50:23.569Z,5.20
2019-05-26T19:52:53.143Z,5.42
2019-05-26T19:55:22.717Z,6.40
2019-05-26T19:57:52.238Z,4.97
2019-05-26T20:00:22.576Z,5.58
2019-05-26T20:02:52.075Z,5.90
2019-05-26T20:05:22.804Z,4.80
2019-05-26T20:07:52.935Z,6.08
2019-05-26T20:10:23.482Z,5.65
2019-05-26T20:12:53.198Z,4.22
2019-05-26T20:15:22.942Z,7.10
2019-05-26T20:17:52.698Z,6.08
2019-05-26T20:20:22.204Z,6.10
2019-05-26T20:22:51.877Z,4.65
2019-05-26T20:25:21.530Z,6.22
2019-05-26T20:27:51.273Z,4.30
2019-05-26T20:30:22.114Z,5.75
2019-05-26T20:32:53.638Z,4.50
2019-05-26T20:35:23.128Z,4.83
2019-05-26T20:37:53.170Z,5.45
2019-05-26T20:40:23.150Z,5.33
2019-05-26T20:42:52.935Z,6.33
2019-05-26T20:45:22.737Z,5.37
2019-05-26T20:47:52.830Z,5.45
2019-05-26T20:50:29.282Z,7.05
2019-05-26T20:52:54.564Z,5.67
2019-05-26T20:55:24.504Z,5.80
2019-05-26T20:57:54.035Z,7.17
2019-05-26T21:00:23.541Z,6.12
2019-05-26T21:02:53.060Z,6.08
2019-05-26T21:05:22.711Z,6.97
2019-05-26T21:07:52.464Z,7.05
2019-05-26T21:10:21.971Z,8.68
2019-05-26T21:12:51.607Z,7.37
2019-05-26T21:15:21.140Z,8.03
2019-05-26T21:17:50.627Z,7.75
2019-05-26T21:20:20.178Z,6.42
2019-05-26T21:22:49.646Z,6.78
2019-05-26T21:25:19.716Z,6.95
2019-05-26T21:27:50.209Z,9.25
2019-05-26T21:30:19.946Z,10.10
2019-05-26T21:32:49.467Z,7.30
2019-05-26T21:35:19.457Z,8.65
2019-05-26T21:37:48.990Z,11.65
2019-05-26T21:40:18.581Z,7.58
2019-05-26T21:42:48.129Z,7.70
2019-05-26T21:45:17.787Z,11.80
2019-05-26T21:47:47.277Z,6.55
2019-05-26T21:50:16.832Z,7.05
2019-05-26T21:52:46.691Z,6.97
2019-05-26T21:55:16.154Z,5.72
2019-05-26T21:57:45.707Z,6.80
2019-05-26T22:00:18.434Z,9.20
2019-05-26T22:02:49.572Z,10.38
2019-05-26T22:05:19.435Z,5.95
2019-05-26T22:07:49.042Z,7.60
2019-05-26T22:10:18.972Z,8.35
2019-05-26T22:12:48.519Z,7.25
2019-05-26T22:15:18.176Z,5.80
2019-05-26T22:17:47.975Z,7.58
2019-05-26T22:20:17.503Z,7.10
2019-05-26T22:22:47.023Z,5.42
2019-05-26T22:25:16.546Z,5.70
2019-05-26T22:27:46.731Z,5.87
2019-05-26T22:30:16.276Z,6.83
2019-05-26T22:32:45.882Z,5.22
2019-05-26T22:35:15.672Z,6.40
2019-05-26T22:37:45.158Z,7.65
2019-05-26T22:40:14.809Z,7.50
2019-05-26T22:42:44.290Z,5.40
2019-05-26T22:45:14.279Z,5.12
2019-05-26T22:47:43.991Z,6.83
2019-05-26T22:50:13.905Z,5.35
2019-05-26T22:52:43.453Z,5.62
2019-05-26T22:55:13.103Z,6.33
2019-05-26T22:57:42.573Z,7.75
2019-05-26T23:00:12.469Z,6.28
2019-05-26T23:02:42.297Z,6.72
2019-05-26T23:05:11.907Z,5.70
2019-05-26T23:07:41.486Z,7.67
2019-05-26T23:10:11.180Z,5.25
2019-05-26T23:12:41.005Z,5.80
2019-05-26T23:15:11.142Z,6.97
2019-05-26T23:17:40.880Z,6.17
2019-05-26T23:20:10.692Z,5.53
2019-05-26T23:22:40.230Z,6.75
2019-05-26T23:25:10.148Z,5.08
2019-05-26T23:27:40.376Z,6.65
2019-05-26T23:30:10.825Z,5.75
2019-05-26T23:32:40.720Z,8.70
2019-05-26T23:35:10.464Z,7.87
2019-05-26T23:37:40.239Z,5.80
2019-05-26T23:40:09.948Z,7.03
2019-05-26T23:42:39.479Z,6.72
2019-05-26T23:45:09.457Z,6.55
2019-05-26T23:47:40.586Z,5.78
2019-05-26T23:50:10.171Z,7.55
2019-05-26T23:52:39.701Z,7.90
2019-05-26T23:55:09.958Z,6.67
2019-05-26T23:57:39.478Z,7.80
